Time;durP1;ratioP1;P1;durP2;ratioP2;P2;SDS_P1;SDS_P2;PMS_P1;PMS_P2;Temp;Humidity;BMP_temperature;BMP_pressure;BME280_temperature;BME280_humidity;BME280_pressure;Samples;Min_cycle;Max_cycle;Signal;HPM_P1;HPM_P2
2023/11/19 04:06:18;;;;;;;0.30;0.20;;;10.20;99.90;;;;;;5403412;23;20275;-59
2023/11/19 04:08:44;;;;;;;0.30;0.30;;;10.20;99.90;;;;;;4976595;28;20643;-59
2023/11/19 04:11:10;;;;;;;0.30;0.30;;;10.20;99.90;;;;;;4976542;28;20171;-59
2023/11/19 04:13:36;;;;;;;0.30;0.30;;;10.30;99.90;;;;;;4976614;28;20668;-59
2023/11/19 04:16:02;;;;;;;0.30;0.20;;;10.30;99.90;;;;;;4958834;28;20287;-59
2023/11/19 04:18:27;;;;;;;0.30;0.30;;;10.30;99.90;;;;;;4957910;28;20181;-60
2023/11/19 04:20:53;;;;;;;0.30;0.30;;;10.30;99.90;;;;;;4975687;28;20187;-60
2023/11/19 04:23:18;;;;;;;0.20;0.20;;;10.40;99.90;;;;;;4976508;28;20170;-60
2023/11/19 04:25:44;;;;;;;0.30;0.30;;;10.40;99.90;;;;;;4975504;28;20211;-59
2023/11/19 04:28:09;;;;;;;0.30;0.30;;;10.50;99.90;;;;;;4976207;28;20184;-59
2023/11/19 04:30:35;;;;;;;0.27;0.27;;;10.50;99.90;;;;;;4976189;28;20180;-59
2023/11/19 04:33:01;;;;;;;0.30;0.20;;;10.60;99.90;;;;;;4976179;28;20764;-59
2023/11/19 04:35:26;;;;;;;0.30;0.30;;;10.60;99.90;;;;;;4974374;28;20677;-59
2023/11/19 04:37:52;;;;;;;0.30;0.30;;;10.70;99.90;;;;;;4976146;28;20177;-58
2023/11/19 04:40:22;;;;;;;0.30;0.30;;;10.70;99.90;;;;;;4976172;28;20269;-59
2023/11/19 04:42:48;;;;;;;0.30;0.20;;;10.70;99.90;;;;;;4975858;28;20198;-59
2023/11/19 04:45:13;;;;;;;0.33;0.33;;;10.70;99.90;;;;;;4975496;28;20218;-59
2023/11/19 04:47:39;;;;;;;0.30;0.30;;;10.80;99.90;;;;;;4975918;28;20578;-59
2023/11/19 04:50:05;;;;;;;0.30;0.30;;;10.80;99.90;;;;;;4975746;28;20206;-59
2023/11/19 04:52:31;;;;;;;0.30;0.30;;;10.80;99.90;;;;;;4975910;28;20206;-59
2023/11/19 04:54:56;;;;;;;0.30;0.30;;;10.80;99.90;;;;;;4975202;28;20490;-59
2023/11/19 04:57:22;;;;;;;0.30;0.20;;;10.80;99.90;;;;;;4958247;28;20269;-60
2023/11/19 04:59:48;;;;;;;0.30;0.30;;;10.90;99.90;;;;;;4975566;28;20173;-60
2023/11/19 05:02:15;;;;;;;0.30;0.30;;;10.90;99.90;;;;;;4975636;28;20703;-60
2023/11/19 05:04:44;;;;;;;0.30;0.30;;;10.90;99.90;;;;;;4974880;28;20202;-60
2023/11/19 05:07:10;;;;;;;0.30;0.30;;;10.90;99.90;;;;;;4975354;28;20192;-59
2023/11/19 05:09:35;;;;;;;0.30;0.30;;;10.90;99.90;;;;;;4975614;28;20208;-60
2023/11/19 05:12:01;;;;;;;0.30;0.30;;;11.00;99.90;;;;;;4975453;28;20521;-59
2023/11/19 05:14:27;;;;;;;0.30;0.20;;;11.00;99.90;;;;;;4975086;28;20210;-60
2023/11/19 05:16:53;;;;;;;0.30;0.27;;;11.00;99.90;;;;;;4975424;28;20854;-60
2023/11/19 05:19:19;;;;;;;0.30;0.30;;;11.10;99.90;;;;;;4957379;28;20630;-59
2023/11/19 05:21:44;;;;;;;0.30;0.30;;;11.10;99.90;;;;;;4975164;28;20577;-60
2023/11/19 05:24:11;;;;;;;0.40;0.40;;;11.10;99.90;;;;;;4974940;28;20176;-60
2023/11/19 05:26:37;;;;;;;0.30;0.30;;;11.10;99.90;;;;;;4975222;28;20202;-60
2023/11/19 05:29:04;;;;;;;0.27;0.27;;;11.10;99.90;;;;;;4975150;28;20494;-60
2023/11/19 05:31:30;;;;;;;0.20;0.20;;;11.20;99.90;;;;;;4975211;28;20776;-60
2023/11/19 05:33:55;;;;;;;0.30;0.30;;;11.20;99.90;;;;;;4974516;28;20452;-61
2023/11/19 05:36:21;;;;;;;0.30;0.30;;;11.20;99.90;;;;;;4974545;28;20189;-60
2023/11/19 05:38:47;;;;;;;0.30;0.30;;;11.20;99.90;;;;;;4975091;28;20201;-59
2023/11/19 05:41:12;;;;;;;0.40;0.40;;;11.20;99.90;;;;;;4974942;28;20256;-59
2023/11/19 05:43:40;;;;;;;0.30;0.30;;;11.20;99.90;;;;;;4974928;28;20536;-60
2023/11/19 05:46:06;;;;;;;0.38;0.38;;;11.20;99.90;;;;;;4974386;28;20712;-60
2023/11/19 05:48:32;;;;;;;0.30;0.30;;;11.20;99.90;;;;;;4974393;28;20544;-60
2023/11/19 05:50:58;;;;;;;0.40;0.40;;;11.20;99.90;;;;;;4974429;28;20186;-59
2023/11/19 05:53:24;;;;;;;0.30;0.30;;;11.30;99.90;;;;;;4974382;28;20547;-60
2023/11/19 05:55:55;;;;;;;0.30;0.30;;;11.30;99.90;;;;;;4973695;28;20189;-60
2023/11/19 05:58:29;;;;;;;0.20;0.20;;;11.30;99.90;;;;;;4957888;28;20177;-59
2023/11/19 06:00:58;;;;;;;0.30;0.30;;;11.30;99.90;;;;;;4974471;28;20459;-60
2023/11/19 06:03:23;;;;;;;0.40;0.40;;;11.30;99.90;;;;;;4974629;28;20266;-59
2023/11/19 06:05:49;;;;;;;0.30;0.30;;;11.30;99.90;;;;;;4973952;28;20515;-59
2023/11/19 06:08:16;;;;;;;0.30;0.30;;;11.40;99.90;;;;;;4974460;28;20185;-60
2023/11/19 06:10:43;;;;;;;0.40;0.40;;;11.40;99.90;;;;;;4973981;28;20197;-59
2023/11/19 06:13:11;;;;;;;0.30;0.30;;;11.40;99.90;;;;;;4973391;28;20456;-60
2023/11/19 06:15:36;;;;;;;0.40;0.40;;;11.40;99.90;;;;;;4973960;28;20437;-60
2023/11/19 06:18:03;;;;;;;0.30;0.30;;;11.40;99.90;;;;;;4974616;28;20921;-60
2023/11/19 06:20:33;;;;;;;0.30;0.23;;;11.50;99.90;;;;;;4974461;28;20184;-60
2023/11/19 06:22:59;;;;;;;0.30;0.30;;;11.50;99.90;;;;;;4974204;28;20420;-60
2023/11/19 06:25:25;;;;;;;0.30;0.30;;;11.50;99.90;;;;;;4973850;28;20186;-60
2023/11/19 06:27:51;;;;;;;0.30;0.30;;;11.50;99.90;;;;;;4974034;28;20774;-60
2023/11/19 06:30:17;;;;;;;0.20;0.20;;;11.50;99.90;;;;;;4956547;28;20880;-59
2023/11/19 06:32:43;;;;;;;0.30;0.30;;;11.50;99.90;;;;;;4974123;28;20450;-60
2023/11/19 06:35:09;;;;;;;0.30;0.30;;;11.50;99.90;;;;;;4973703;28;20891;-60
2023/11/19 06:37:35;;;;;;;0.20;0.20;;;11.50;99.90;;;;;;4974091;28;20182;-60
2023/11/19 06:40:02;;;;;;;0.30;0.30;;;11.50;99.90;;;;;;4974152;28;20177;-60
2023/11/19 06:42:28;;;;;;;0.30;0.20;;;11.50;99.90;;;;;;4973876;28;20426;-58
2023/11/19 06:44:57;;;;;;;0.30;0.30;;;11.50;99.90;;;;;;4973739;28;20423;-60
2023/11/19 06:47:26;;;;;;;0.30;0.30;;;11.50;99.90;;;;;;4974278;28;20202;-60
2023/11/19 06:49:51;;;;;;;0.30;0.30;;;11.50;99.90;;;;;;4974035;28;20421;-60
2023/11/19 06:52:17;;;;;;;0.30;0.30;;;11.60;99.90;;;;;;4974284;28;20428;-60
2023/11/19 06:54:43;;;;;;;0.30;0.30;;;11.60;99.90;;;;;;4973644;28;20201;-59
2023/11/19 06:57:09;;;;;;;0.30;0.30;;;11.60;99.90;;;;;;4973788;28;20520;-60
2023/11/19 06:59:35;;;;;;;0.20;0.20;;;11.60;99.90;;;;;;4973630;28;20648;-59
2023/11/19 07:02:00;;;;;;;0.30;0.20;;;11.60;99.90;;;;;;4974146;28;20441;-60
2023/11/19 07:04:26;;;;;;;0.30;0.30;;;11.60;99.90;;;;;;4973659;28;20186;-60
2023/11/19 07:06:53;;;;;;;0.40;0.40;;;11.70;99.90;;;;;;4976886;28;20226;-60
2023/11/19 07:09:18;;;;;;;0.30;0.20;;;11.70;99.90;;;;;;4977835;28;20826;-60
2023/11/19 07:11:46;;;;;;;0.30;0.30;;;11.70;99.90;;;;;;4977512;28;20401;-60
2023/11/19 07:14:12;;;;;;;0.23;0.20;;;11.70;99.90;;;;;;4977230;28;20682;-60
2023/11/19 07:16:38;;;;;;;0.30;0.20;;;11.70;99.90;;;;;;4977408;28;20430;-59
2023/11/19 07:19:07;;;;;;;0.30;0.20;;;11.70;99.90;;;;;;4977690;28;20402;-58
2023/11/19 07:21:33;;;;;;;0.30;0.30;;;11.80;99.90;;;;;;4977508;28;20505;-58
2023/11/19 07:23:59;;;;;;;0.30;0.30;;;11.80;99.90;;;;;;4959861;28;20427;-60
2023/11/19 07:26:25;;;;;;;0.30;0.30;;;11.80;99.90;;;;;;4977075;28;20201;-59
2023/11/19 07:28:51;;;;;;;0.20;0.20;;;11.90;99.90;;;;;;4959603;28;20181;-59
2023/11/19 07:31:19;;;;;;;0.30;0.30;;;11.90;99.90;;;;;;4976917;28;20405;-60
2023/11/19 07:33:45;;;;;;;0.30;0.30;;;11.90;99.90;;;;;;4976615;28;20458;-59
2023/11/19 07:36:11;;;;;;;0.30;0.30;;;11.90;99.90;;;;;;4976988;28;20520;-60
2023/11/19 07:38:38;;;;;;;0.40;0.40;;;11.90;99.90;;;;;;4977160;28;20478;-59
2023/11/19 07:41:05;;;;;;;0.30;0.30;;;11.90;99.90;;;;;;4976816;28;20441;-59
2023/11/19 07:43:31;;;;;;;0.30;0.30;;;12.00;99.90;;;;;;4976990;28;20410;-59
2023/11/19 07:45:58;;;;;;;0.23;0.20;;;12.00;99.90;;;;;;4976497;28;20430;-59
2023/11/19 07:48:24;;;;;;;0.27;0.20;;;12.10;99.90;;;;;;4976890;28;20409;-59
2023/11/19 07:50:50;;;;;;;0.30;0.30;;;12.10;99.90;;;;;;4976994;28;20421;-60
2023/11/19 07:53:19;;;;;;;0.30;0.30;;;12.10;99.90;;;;;;4976685;28;20461;-58
2023/11/19 07:55:45;;;;;;;0.30;0.30;;;12.10;99.90;;;;;;4976097;28;20566;-61
2023/11/19 07:58:12;;;;;;;0.30;0.30;;;12.10;99.90;;;;;;4976597;28;20411;-59
2023/11/19 08:00:38;;;;;;;0.30;0.30;;;12.10;99.90;;;;;;4976588;28;20414;-58
2023/11/19 08:03:04;;;;;;;0.30;0.30;;;12.10;99.90;;;;;;4976708;28;20384;-60
2023/11/19 08:05:33;;;;;;;0.30;0.30;;;12.20;99.90;;;;;;4975861;28;20945;-60
2023/11/19 08:07:58;;;;;;;0.30;0.20;;;12.20;99.90;;;;;;4976675;28;20530;-59
2023/11/19 08:10:24;;;;;;;0.30;0.30;;;12.30;99.90;;;;;;4976087;28;20849;-59
2023/11/19 08:12:49;;;;;;;0.30;0.30;;;12.30;99.90;;;;;;4976497;28;20186;-60
2023/11/19 08:15:15;;;;;;;0.40;0.40;;;12.40;99.90;;;;;;4975924;28;20277;-61
2023/11/19 08:17:42;;;;;;;0.30;0.30;;;12.40;99.90;;;;;;4975341;28;20171;-62
2023/11/19 08:20:10;;;;;;;0.30;0.30;;;12.50;99.90;;;;;;4975790;28;20525;-62
2023/11/19 08:22:37;;;;;;;0.30;0.30;;;12.50;99.90;;;;;;4976076;28;20410;-60
2023/11/19 08:25:04;;;;;;;0.30;0.30;;;12.60;99.90;;;;;;4975674;28;20481;-60
2023/11/19 08:27:29;;;;;;;0.40;0.40;;;12.70;99.90;;;;;;4976300;28;20412;-59
2023/11/19 08:29:56;;;;;;;0.30;0.20;;;12.80;99.90;;;;;;4975401;28;20393;-59
2023/11/19 08:32:26;;;;;;;0.30;0.30;;;12.80;99.90;;;;;;4976182;28;20485;-60
2023/11/19 08:34:52;;;;;;;0.30;0.20;;;13.00;99.90;;;;;;4975159;28;20462;-59
2023/11/19 08:37:20;;;;;;;0.30;0.30;;;13.30;99.90;;;;;;4975780;28;20506;-60
2023/11/19 08:39:48;;;;;;;0.30;0.30;;;13.50;99.90;;;;;;4976083;28;20404;-60
2023/11/19 08:42:14;;;;;;;0.30;0.30;;;13.60;99.90;;;;;;4976191;28;20418;-60
2023/11/19 08:44:43;;;;;;;0.30;0.30;;;13.60;99.90;;;;;;4975498;28;20412;-60
2023/11/19 08:47:12;;;;;;;0.30;0.20;;;13.60;99.90;;;;;;4975710;28;20172;-60
2023/11/19 08:49:38;;;;;;;0.30;0.30;;;13.60;99.90;;;;;;4957928;28;20986;-61
2023/11/19 08:52:07;;;;;;;0.30;0.30;;;13.70;99.90;;;;;;4975832;28;20490;-60
2023/11/19 08:54:33;;;;;;;0.50;0.50;;;13.80;99.90;;;;;;4975255;28;20868;-61
2023/11/19 08:56:59;;;;;;;0.30;0.30;;;13.80;99.90;;;;;;4975454;28;20459;-60
2023/11/19 08:59:25;;;;;;;0.30;0.30;;;13.90;99.90;;;;;;4975526;28;20259;-60
2023/11/19 09:01:50;;;;;;;0.30;0.30;;;13.90;99.90;;;;;;4975230;28;20875;-65
2023/11/19 09:04:16;;;;;;;0.30;0.20;;;13.90;99.90;;;;;;4974871;28;20211;-60
2023/11/19 09:06:42;;;;;;;0.30;0.20;;;13.90;99.90;;;;;;4975250;28;20298;-60
2023/11/19 09:09:09;;;;;;;0.30;0.20;;;14.00;99.90;;;;;;4974756;28;20179;-58
2023/11/19 09:11:35;;;;;;;0.30;0.30;;;14.10;99.90;;;;;;4989278;28;20802;-59
2023/11/19 09:14:00;;;;;;;0.30;0.20;;;14.20;99.90;;;;;;4993307;28;20458;-60
2023/11/19 09:16:26;;;;;;;0.30;0.30;;;14.80;99.90;;;;;;4975275;28;20211;-62
2023/11/19 09:18:51;;;;;;;0.37;0.37;;;15.50;99.90;;;;;;4975289;28;20175;-60
2023/11/19 09:21:17;;;;;;;0.30;0.30;;;16.10;99.90;;;;;;4975191;28;20176;-61
2023/11/19 09:23:43;;;;;;;0.30;0.30;;;16.40;99.90;;;;;;4975206;28;20175;-60
2023/11/19 09:26:10;;;;;;;0.30;0.30;;;16.60;99.90;;;;;;4975256;28;20457;-59
2023/11/19 09:28:36;;;;;;;0.30;0.30;;;16.60;99.90;;;;;;4994514;28;20973;-59
2023/11/19 09:31:04;;;;;;;0.30;0.30;;;16.40;99.90;;;;;;4994572;28;20411;-59
2023/11/19 09:33:30;;;;;;;0.30;0.30;;;16.20;99.90;;;;;;4994386;28;20462;-59
2023/11/19 09:35:56;;;;;;;0.30;0.30;;;16.00;99.90;;;;;;4993965;28;20413;-59
2023/11/19 09:38:22;;;;;;;0.30;0.30;;;15.80;99.90;;;;;;4976771;28;20433;-59
2023/11/19 09:40:48;;;;;;;0.30;0.30;;;15.60;99.90;;;;;;4994585;28;20257;-60
2023/11/19 09:43:15;;;;;;;0.30;0.30;;;15.50;99.90;;;;;;4994408;28;20492;-61
2023/11/19 09:45:50;;;;;;;0.30;0.20;;;15.30;99.90;;;;;;4993791;28;20531;-60
2023/11/19 09:48:19;;;;;;;0.30;0.30;;;15.20;99.90;;;;;;4994238;28;20503;-60
2023/11/19 09:50:49;;;;;;;0.30;0.30;;;15.00;99.90;;;;;;4994165;28;20393;-59
2023/11/19 09:53:15;;;;;;;0.40;0.40;;;15.00;99.90;;;;;;4993787;28;20437;-60
2023/11/19 09:55:41;;;;;;;0.30;0.30;;;15.10;99.90;;;;;;4993612;28;20407;-61
2023/11/19 09:58:07;;;;;;;0.30;0.30;;;15.50;99.90;;;;;;4994006;28;20493;-60
2023/11/19 10:00:33;;;;;;;0.50;0.40;;;15.80;99.90;;;;;;4994069;28;20416;-60
2023/11/19 10:03:00;;;;;;;0.30;0.30;;;16.00;99.90;;;;;;4990789;28;20764;-60
2023/11/19 10:05:26;;;;;;;0.30;0.20;;;16.40;99.90;;;;;;4973958;28;20538;-60
2023/11/19 10:07:52;;;;;;;0.30;0.30;;;16.70;99.90;;;;;;4973830;28;20411;-60
2023/11/19 10:10:19;;;;;;;0.30;0.30;;;16.90;99.90;;;;;;4956476;28;20420;-59
2023/11/19 10:12:47;;;;;;;0.40;0.40;;;17.10;99.90;;;;;;4974733;28;20426;-59
2023/11/19 10:15:24;;;;;;;0.40;0.40;;;17.40;99.90;;;;;;4985667;28;20455;-60
2023/11/19 10:17:50;;;;;;;0.30;0.30;;;17.40;99.90;;;;;;4991743;28;20411;-60
2023/11/19 10:20:16;;;;;;;0.30;0.30;;;17.60;99.90;;;;;;4973440;28;20752;-59
2023/11/19 10:22:41;;;;;;;0.30;0.20;;;17.90;99.90;;;;;;4973489;28;20390;-61
2023/11/19 10:25:27;;;;;;;0.30;0.30;;;18.20;99.90;;;;;;4973231;28;20203;-60
2023/11/19 10:27:53;;;;;;;0.30;0.30;;;18.40;99.90;;;;;;4956215;28;20168;-60
2023/11/19 10:30:23;;;;;;;0.30;0.30;;;18.40;99.90;;;;;;4976889;28;20443;-60
2023/11/19 10:33:16;;;;;;;0.30;0.30;;;18.60;99.90;;;;;;4992758;28;20411;-60
2023/11/19 10:35:54;;;;;;;0.30;0.20;;;18.80;99.90;;;;;;4992537;28;20768;-60
2023/11/19 10:38:21;;;;;;;0.30;0.30;;;18.80;99.90;;;;;;4975196;28;20382;-59
2023/11/19 10:40:47;;;;;;;0.30;0.30;;;18.60;99.90;;;;;;4994051;28;20389;-59
2023/11/19 10:43:13;;;;;;;0.30;0.20;;;18.50;99.90;;;;;;4996486;28;20677;-60
2023/11/19 10:45:39;;;;;;;0.30;0.30;;;18.10;99.90;;;;;;4995768;28;20514;-60
2023/11/19 10:48:06;;;;;;;0.30;0.30;;;17.80;99.90;;;;;;4996441;28;20199;-58
2023/11/19 10:50:36;;;;;;;0.30;0.20;;;17.60;99.90;;;;;;4996648;28;20461;-61
2023/11/19 10:53:06;;;;;;;0.30;0.30;;;17.50;99.90;;;;;;4979233;28;20793;-60
2023/11/19 10:55:38;;;;;;;0.30;0.20;;;17.40;99.90;;;;;;4996289;28;20857;-59
2023/11/19 10:58:06;;;;;;;0.30;0.30;;;17.60;99.90;;;;;;4996077;28;20438;-59
2023/11/19 11:00:58;;;;;;;0.30;0.30;;;17.70;99.90;;;;;;4996263;28;20914;-61
2023/11/19 11:03:26;;;;;;;0.30;0.30;;;17.90;99.90;;;;;;4996144;28;20422;-61
2023/11/19 11:05:53;;;;;;;0.30;0.30;;;17.90;99.90;;;;;;4941038;28;1580225;-59
2023/11/19 11:08:20;;;;;;;0.30;0.20;;;17.90;99.90;;;;;;4981591;28;20262;-61
2023/11/19 11:10:57;;;;;;;0.30;0.30;;;17.80;99.90;;;;;;4977632;28;20397;-62
2023/11/19 11:13:25;;;;;;;0.30;0.20;;;17.70;99.90;;;;;;4977392;28;20428;-62
2023/11/19 11:15:51;;;;;;;0.30;0.30;;;17.50;99.90;;;;;;4977134;28;20426;-61
2023/11/19 11:18:18;;;;;;;0.30;0.30;;;17.40;99.90;;;;;;4977519;28;20459;-61
2023/11/19 11:20:47;;;;;;;0.90;0.90;;;17.30;99.90;;;;;;4977500;28;20386;-61
2023/11/19 11:23:31;;;;;;;0.30;0.20;;;17.20;99.90;;;;;;4977448;28;20410;-61
2023/11/19 11:26:08;;;;;;;0.30;0.30;;;17.00;99.90;;;;;;4976919;28;20415;-61
2023/11/19 11:28:48;;;;;;;0.30;0.30;;;17.00;99.90;;;;;;4959823;28;20386;-62
2023/11/19 11:31:26;;;;;;;0.30;0.30;;;16.90;99.90;;;;;;4977379;28;20469;-60
2023/11/19 11:34:20;;;;;;;0.30;0.20;;;16.80;99.90;;;;;;4976876;28;20811;-62
2023/11/19 11:37:10;;;;;;;0.30;0.30;;;16.70;99.90;;;;;;4977311;28;20414;-61
2023/11/19 11:39:39;;;;;;;0.30;0.23;;;16.60;99.90;;;;;;4977277;28;20411;-62
2023/11/19 11:42:23;;;;;;;0.30;0.30;;;16.70;99.90;;;;;;4977025;28;20401;-64
2023/11/19 11:45:09;;;;;;;0.30;0.27;;;16.60;99.90;;;;;;4976461;28;20501;-63
2023/11/19 11:47:44;;;;;;;0.30;0.20;;;16.50;99.90;;;;;;4977083;28;20424;-62
2023/11/19 11:50:12;;;;;;;0.30;0.30;;;16.40;99.90;;;;;;4976673;28;20910;-62
2023/11/19 11:52:59;;;;;;;0.30;0.20;;;16.40;99.90;;;;;;4975569;28;20767;-62
2023/11/19 11:55:24;;;;;;;0.30;0.20;;;16.50;99.90;;;;;;4976382;28;20936;-63
2023/11/19 11:57:50;;;;;;;0.30;0.30;;;16.60;99.90;;;;;;4976700;28;20383;-59
2023/11/19 12:00:28;;;;;;;0.30;0.30;;;16.70;99.90;;;;;;4976579;28;20596;-61
2023/11/19 12:02:59;;;;;;;0.30;0.20;;;16.80;99.90;;;;;;4975850;28;20183;-62
2023/11/19 12:05:25;;;;;;;0.30;0.30;;;16.80;99.90;;;;;;4976592;28;20427;-65
2023/11/19 12:08:02;;;;;;;0.30;0.20;;;16.80;99.90;;;;;;4994829;28;20494;-62
2023/11/19 12:10:31;;;;;;;0.30;0.30;;;16.90;99.90;;;;;;4984586;28;20388;-64
2023/11/19 12:13:01;;;;;;;0.30;0.20;;;16.90;99.90;;;;;;4975390;28;20421;-63
2023/11/19 12:15:27;;;;;;;0.30;0.20;;;16.90;99.90;;;;;;4958492;28;20409;-63
2023/11/19 12:17:54;;;;;;;0.30;0.30;;;17.00;99.90;;;;;;4976392;28;20481;-65
2023/11/19 12:20:25;;;;;;;0.40;0.40;;;17.00;99.90;;;;;;4975182;28;20407;-64
2023/11/19 12:22:51;;;;;;;0.30;0.20;;;17.10;99.90;;;;;;4985929;28;20439;-63
2023/11/19 12:25:19;;;;;;;0.30;0.30;;;17.20;99.90;;;;;;4993290;28;20409;-65
2023/11/19 12:27:47;;;;;;;0.30;0.30;;;17.20;99.90;;;;;;4993763;28;20738;-64
2023/11/19 12:30:26;;;;;;;0.30;0.30;;;17.30;99.90;;;;;;4993643;28;20411;-62
2023/11/19 12:32:56;;;;;;;0.30;0.30;;;17.30;99.90;;;;;;4993677;28;20749;-63
2023/11/19 12:35:22;;;;;;;0.30;0.30;;;17.40;99.90;;;;;;4993973;28;20431;-63
2023/11/19 12:37:50;;;;;;;0.30;0.20;;;17.30;99.90;;;;;;4977866;28;20738;-63
2023/11/19 12:40:24;;;;;;;0.30;0.30;;;17.30;99.90;;;;;;4995328;28;20377;-63
2023/11/19 12:42:51;;;;;;;0.30;0.30;;;17.30;99.90;;;;;;4995458;28;20399;-62
2023/11/19 12:45:19;;;;;;;0.30;0.20;;;17.30;99.90;;;;;;4977444;28;20442;-62
2023/11/19 12:47:46;;;;;;;0.30;0.30;;;17.30;99.90;;;;;;4995379;28;20464;-63
2023/11/19 12:50:12;;;;;;;0.30;0.30;;;17.30;99.90;;;;;;4995229;28;20402;-63
2023/11/19 12:52:38;;;;;;;0.30;0.30;;;17.30;99.90;;;;;;4995620;28;20723;-63
2023/11/19 12:55:29;;;;;;;0.30;0.20;;;17.30;99.90;;;;;;4994604;28;20597;-63
2023/11/19 12:57:55;;;;;;;0.30;0.20;;;17.40;99.90;;;;;;4977879;28;20378;-62
2023/11/19 13:00:25;;;;;;;0.30;0.30;;;17.40;99.90;;;;;;4956487;28;20392;-63
2023/11/19 13:02:51;;;;;;;0.30;0.20;;;17.30;99.90;;;;;;4954885;28;20394;-62
2023/11/19 13:05:36;;;;;;;0.30;0.30;;;17.30;99.90;;;;;;4955759;29;20785;-61
2023/11/19 13:08:06;;;;;;;0.30;0.30;;;17.40;99.90;;;;;;4952338;29;20415;-63
2023/11/19 13:10:32;;;;;;;0.37;0.37;;;17.40;99.90;;;;;;4956207;28;20413;-64
2023/11/19 13:13:03;;;;;;;0.30;0.30;;;17.50;99.90;;;;;;4956076;28;20935;-62
2023/11/19 13:15:29;;;;;;;0.30;0.30;;;17.40;99.90;;;;;;4955673;28;20438;-62
2023/11/19 13:17:55;;;;;;;0.30;0.30;;;17.40;99.90;;;;;;4956134;28;20407;-62
2023/11/19 13:20:21;;;;;;;0.50;0.40;;;17.40;99.90;;;;;;4956098;28;20207;-63
2023/11/19 13:23:03;;;;;;;0.30;0.30;;;17.30;99.90;;;;;;4956088;28;20169;-63
2023/11/19 13:25:31;;;;;;;0.30;0.30;;;17.30;99.90;;;;;;4955462;28;20473;-63
2023/11/19 13:27:58;;;;;;;0.30;0.30;;;17.30;99.90;;;;;;4955860;28;20456;-63
2023/11/19 13:30:25;;;;;;;0.30;0.30;;;17.30;99.90;;;;;;4954519;29;20510;-62
2023/11/19 13:32:52;;;;;;;0.30;0.30;;;17.30;99.90;;;;;;4955763;28;20407;-64
2023/11/19 13:35:18;;;;;;;0.30;0.30;;;17.20;99.90;;;;;;4954042;28;20443;-64
2023/11/19 13:37:44;;;;;;;0.30;0.30;;;17.10;99.90;;;;;;4955806;28;20388;-63
2023/11/19 13:40:15;;;;;;;0.30;0.30;;;17.00;99.90;;;;;;4955663;28;20428;-64
2023/11/19 13:42:41;;;;;;;0.30;0.30;;;17.00;99.90;;;;;;4955813;28;20762;-63
2023/11/19 13:45:11;;;;;;;0.40;0.40;;;16.90;99.90;;;;;;4955258;28;20428;-64
2023/11/19 13:47:44;;;;;;;0.30;0.30;;;16.80;99.90;;;;;;4955769;28;20845;-63
2023/11/19 13:50:12;;;;;;;0.30;0.30;;;16.80;99.90;;;;;;4955859;28;20990;-64
2023/11/19 13:52:38;;;;;;;0.30;0.30;;;16.70;99.90;;;;;;4955992;28;20886;-64
2023/11/19 13:55:06;;;;;;;0.30;0.27;;;16.70;99.90;;;;;;4955290;28;20453;-63
2023/11/19 13:57:32;;;;;;;0.30;0.30;;;16.70;99.90;;;;;;4955443;29;20393;-62
2023/11/19 13:59:57;;;;;;;0.30;0.20;;;16.70;99.90;;;;;;4973738;28;20414;-62
2023/11/19 14:02:23;;;;;;;0.30;0.20;;;16.70;99.90;;;;;;4994153;28;20541;-63
2023/11/19 14:04:49;;;;;;;0.30;0.30;;;16.70;99.90;;;;;;4993494;28;20240;-64
2023/11/19 14:07:15;;;;;;;0.30;0.30;;;16.70;99.90;;;;;;4993834;28;20197;-62
2023/11/19 14:09:42;;;;;;;0.30;0.30;;;16.60;99.90;;;;;;4994126;28;20382;-63
2023/11/19 14:12:09;;;;;;;0.30;0.30;;;16.60;99.90;;;;;;4993908;28;20567;-62
2023/11/19 14:14:35;;;;;;;0.30;0.30;;;16.40;99.90;;;;;;4993150;28;20442;-62
2023/11/19 14:17:05;;;;;;;0.30;0.30;;;16.40;99.90;;;;;;4993493;28;20412;-63
2023/11/19 14:19:31;;;;;;;0.40;0.40;;;16.20;99.90;;;;;;4976257;28;20408;-63
2023/11/19 14:21:57;;;;;;;0.30;0.30;;;16.10;99.90;;;;;;4993985;28;20792;-63
2023/11/19 14:24:24;;;;;;;0.30;0.30;;;16.00;99.90;;;;;;4993402;28;20168;-62
2023/11/19 14:26:51;;;;;;;0.30;0.20;;;15.90;99.90;;;;;;4993735;28;20458;-63
2023/11/19 14:29:17;;;;;;;0.30;0.30;;;15.80;99.90;;;;;;4993828;28;20382;-62
2023/11/19 14:31:43;;;;;;;0.40;0.40;;;15.70;99.90;;;;;;4993775;28;20720;-62
2023/11/19 14:34:08;;;;;;;0.30;0.30;;;15.50;99.90;;;;;;4993152;28;20461;-62
2023/11/19 14:36:34;;;;;;;0.30;0.20;;;15.40;99.90;;;;;;4993499;28;20193;-63
2023/11/19 14:39:00;;;;;;;0.30;0.30;;;15.30;99.90;;;;;;4993954;28;20254;-61
2023/11/19 14:41:26;;;;;;;0.30;0.30;;;15.20;99.90;;;;;;4993773;28;20464;-62
2023/11/19 14:43:52;;;;;;;0.30;0.20;;;15.20;99.90;;;;;;4993409;28;20175;-64
2023/11/19 14:46:18;;;;;;;0.33;0.33;;;15.10;99.90;;;;;;4993432;28;20206;-62
2023/11/19 14:48:44;;;;;;;0.30;0.30;;;15.10;99.90;;;;;;4993622;28;20808;-63
2023/11/19 14:51:09;;;;;;;0.30;0.30;;;15.10;99.90;;;;;;4975908;28;20451;-62
2023/11/19 14:53:35;;;;;;;0.30;0.30;;;15.10;99.90;;;;;;4993549;28;20455;-62
2023/11/19 14:56:00;;;;;;;0.30;0.30;;;14.90;99.90;;;;;;4993051;28;20187;-61
2023/11/19 14:58:26;;;;;;;0.40;0.40;;;14.90;99.90;;;;;;4989373;28;20180;-63
2023/11/19 15:00:52;;;;;;;0.30;0.30;;;14.80;99.90;;;;;;4974064;28;20617;-63
2023/11/19 15:03:19;;;;;;;0.30;0.27;;;14.60;99.90;;;;;;4974077;28;20168;-63
2023/11/19 15:05:48;;;;;;;0.30;0.30;;;14.60;99.90;;;;;;4973341;28;20451;-62
2023/11/19 15:08:15;;;;;;;0.40;0.40;;;14.50;99.90;;;;;;4973837;28;20415;-62
2023/11/19 15:10:42;;;;;;;0.30;0.30;;;14.40;99.90;;;;;;4974119;28;20590;-63
2023/11/19 15:13:08;;;;;;;0.30;0.20;;;14.40;99.90;;;;;;4956735;28;20442;-63
2023/11/19 15:15:34;;;;;;;0.30;0.30;;;14.30;99.90;;;;;;4973362;28;20450;-65
2023/11/19 15:18:00;;;;;;;0.30;0.20;;;14.30;99.90;;;;;;4973881;28;20420;-63
2023/11/19 15:20:29;;;;;;;0.30;0.30;;;14.20;99.90;;;;;;4956534;28;20203;-63
2023/11/19 15:22:58;;;;;;;0.30;0.30;;;14.20;99.90;;;;;;4973925;28;20180;-63
2023/11/19 15:25:24;;;;;;;0.30;0.30;;;14.10;99.90;;;;;;4973577;28;20504;-62
2023/11/19 15:27:50;;;;;;;0.30;0.30;;;14.10;99.90;;;;;;4976527;28;20494;-63
2023/11/19 15:30:16;;;;;;;0.30;0.30;;;14.00;99.90;;;;;;4977159;28;20183;-63
2023/11/19 15:32:46;;;;;;;0.30;0.30;;;14.00;99.90;;;;;;4977338;28;20423;-62
2023/11/19 15:35:12;;;;;;;0.30;0.30;;;13.90;99.90;;;;;;4976650;28;20437;-61
2023/11/19 15:37:43;;;;;;;0.40;0.40;;;13.90;99.90;;;;;;4977254;28;20417;-62
2023/11/19 15:40:12;;;;;;;0.30;0.30;;;13.90;99.90;;;;;;4977225;28;20422;-62
2023/11/19 15:42:39;;;;;;;0.30;0.30;;;13.90;99.90;;;;;;4960423;28;20811;-63
2023/11/19 15:45:06;;;;;;;0.30;0.30;;;13.90;99.90;;;;;;4976500;28;20446;-63
2023/11/19 15:47:32;;;;;;;0.30;0.30;;;13.80;99.90;;;;;;4959593;28;20400;-63
2023/11/19 15:49:59;;;;;;;0.40;0.40;;;13.80;99.90;;;;;;4977034;28;20744;-63
2023/11/19 15:52:26;;;;;;;0.30;0.20;;;13.80;99.90;;;;;;4977191;28;20891;-63
2023/11/19 15:54:52;;;;;;;0.30;0.30;;;13.70;99.90;;;;;;4976454;28;20472;-65
2023/11/19 15:57:18;;;;;;;0.30;0.30;;;13.60;99.90;;;;;;4976755;28;20415;-64
2023/11/19 15:59:43;;;;;;;0.30;0.30;;;13.50;99.90;;;;;;4991131;28;20729;-63
2023/11/19 16:02:09;;;;;;;0.30;0.30;;;13.40;99.90;;;;;;4996332;28;20178;-62
2023/11/19 16:04:35;;;;;;;0.30;0.30;;;13.30;99.90;;;;;;4995845;28;20174;-62
2023/11/19 16:07:00;;;;;;;0.30;0.30;;;13.20;99.90;;;;;;4996023;28;20567;-63
2023/11/19 16:09:28;;;;;;;0.30;0.30;;;13.20;99.90;;;;;;4996144;28;20257;-62
2023/11/19 16:11:54;;;;;;;0.30;0.30;;;13.10;99.90;;;;;;4996439;28;20170;-63
2023/11/19 16:14:20;;;;;;;0.37;0.37;;;13.10;99.90;;;;;;4995495;28;20465;-63
2023/11/19 16:16:45;;;;;;;0.30;0.20;;;13.00;99.90;;;;;;4995788;28;20780;-63
2023/11/19 16:19:11;;;;;;;0.30;0.30;;;13.00;99.90;;;;;;4995765;28;20184;-64
2023/11/19 16:21:37;;;;;;;0.30;0.20;;;13.00;99.90;;;;;;4995713;28;20174;-63
2023/11/19 16:24:04;;;;;;;0.30;0.30;;;12.90;99.90;;;;;;4995532;28;20185;-62
2023/11/19 16:26:30;;;;;;;0.30;0.30;;;12.90;99.90;;;;;;4995689;28;20197;-63
2023/11/19 16:28:56;;;;;;;0.30;0.27;;;12.90;99.90;;;;;;4995563;28;20904;-63
2023/11/19 16:31:23;;;;;;;0.60;0.60;;;12.90;99.90;;;;;;4995551;28;20414;-63
2023/11/19 16:33:48;;;;;;;0.30;0.20;;;12.80;99.90;;;;;;4995746;28;20459;-63
2023/11/19 16:36:14;;;;;;;0.30;0.30;;;12.80;99.90;;;;;;4977575;28;20436;-63
2023/11/19 16:38:47;;;;;;;0.30;0.20;;;12.70;99.90;;;;;;4994904;28;20710;-62
2023/11/19 16:41:16;;;;;;;0.30;0.30;;;12.70;99.90;;;;;;4995540;28;20415;-63
2023/11/19 16:43:41;;;;;;;0.30;0.20;;;12.60;99.90;;;;;;4995405;28;20414;-61
2023/11/19 16:46:08;;;;;;;0.30;0.27;;;12.60;99.90;;;;;;4977626;28;20424;-62
2023/11/19 16:48:33;;;;;;;0.30;0.20;;;12.50;99.90;;;;;;4995418;28;20201;-63
2023/11/19 16:50:59;;;;;;;0.30;0.30;;;12.50;99.90;;;;;;4995361;28;20432;-62
2023/11/19 16:53:26;;;;;;;0.30;0.30;;;12.40;99.90;;;;;;4995117;28;20206;-63
2023/11/19 16:55:51;;;;;;;0.30;0.20;;;12.40;99.90;;;;;;4994677;28;20229;-63